OMAM/DHF METAR and TAF weather

Enter ICAO airport designator
Station Type Date Time Source
OMAM METAR 2019/05/20 11:00 UTC NOAA

OMAM 201100Z 33016KT CAVOK 37/19 Q1007 A2973


Station Type Date Time Source
OMAM Decoded METAR 2019/05/20 11:00 UTC NOAA

Station name not available
May 20, 2019 - 07:00 AM EDT / 2019.05.20 1100 UTC
Wind: from the NNW (330 degrees) at 18 MPH (16 KT):0
Visibility: greater than 7 mile(s):0
Temperature: 98 F (37 C)
Heat index: 101.1 F (38.4 C):1
Dew Point: 66 F (19 C)
Relative Humidity: 34%
Pressure (altimeter): 29.73 in. Hg (1006 hPa)
ob: OMAM 201100Z 33016KT CAVOK 37/19 Q1007 A2973
cycle: 11

Station Type Date Time Source
OMAM TAF 2015/04/12 06:25 UTC NOAA

TAF OMAM 120525Z 1206/1312 16006KT CAVOK
BECMG 1213/1215 04009KT
BECMG 1221/1223 14006KT
BECMG 1309/1311 31013KT

Example: see airport list